^^
Paulen-Weather Station Historical Data
Daily Summary for July 23, 2022 Units:  Metric    English   Both
Daily Weekly Monthly Yearly Custom
  High: Low: Average:
Temperature: 17 °C 16 °C 16.7 °C
Dew Point: 15 °C 14 °C 15 °C
Humidity: 93% 88% 91%
Wind Speed: 19km/h 1km/h 8.1km/h
Wind Gust: 15km/h - -
Wind- - SE
Pressure: 1014.6 hPa 1013.48 hPa -
Precipitation: 0 mm    
Historical Graphs
 
 
Tabular Data for July 23, 2022
Time Temperature Dew Point Pressure Wind Wind Speed Wind Gust Humidity Rainfall Rate (Hourly) solar
00:04 17 °C 15 °C 1014.46 hPa ENE 10 km/h 8 km/h 91% 0 mm 0 W/m2
00:09 17 °C 15 °C 1014.49 hPa ENE 6 km/h 6 km/h 91% 0 mm 0 W/m2
00:14 17 °C 15 °C 1014.53 hPa ENE 7 km/h 6 km/h 91% 0 mm 0 W/m2
00:19 17 °C 15 °C 1014.56 hPa E 6 km/h 5 km/h 91% 0 mm 0 W/m2
00:24 17 °C 15 °C 1014.6 hPa E 8 km/h 7 km/h 91% 0 mm 0 W/m2
00:29 17 °C 15 °C 1014.56 hPa E 8 km/h 8 km/h 91% 0 mm 0 W/m2
00:34 17 °C 15 °C 1014.6 hPa E 11 km/h 10 km/h 90% 0 mm 0 W/m2
00:39 17 °C 15 °C 1014.53 hPa E 9 km/h 9 km/h 90% 0 mm 0 W/m2
00:44 17 °C 15 °C 1014.46 hPa ENE 7 km/h 6 km/h 90% 0 mm 0 W/m2
00:49 17 °C 15 °C 1014.43 hPa ENE 8 km/h 8 km/h 90% 0 mm 0 W/m2
00:54 17 °C 15 °C 1014.43 hPa ENE 8 km/h 9 km/h 90% 0 mm 0 W/m2
00:59 17 °C 15 °C 1014.33 hPa ENE 12 km/h 11 km/h 90% 0 mm 0 W/m2
01:04 17 °C 15 °C 1014.36 hPa ENE 10 km/h 8 km/h 90% 0 mm 0 W/m2
01:09 17 °C 15 °C 1014.36 hPa ENE 10 km/h 10 km/h 90% 0 mm 0 W/m2
01:14 17 °C 15 °C 1014.33 hPa ENE 9 km/h 7 km/h 90% 0 mm 0 W/m2
01:19 17 °C 15 °C 1014.29 hPa ENE 6 km/h 5 km/h 90% 0 mm 0 W/m2
01:24 17 °C 15 °C 1014.36 hPa NE 6 km/h 6 km/h 90% 0 mm 0 W/m2
01:29 17 °C 15 °C 1014.39 hPa NNE 6 km/h 6 km/h 90% 0 mm 0 W/m2
01:34 17 °C 15 °C 1014.43 hPa NNE 5 km/h 4 km/h 90% 0 mm 0 W/m2
01:39 17 °C 15 °C 1014.43 hPa NNE 5 km/h 5 km/h 90% 0 mm 0 W/m2
01:44 17 °C 15 °C 1014.43 hPa NNE 5 km/h 4 km/h 90% 0 mm 0 W/m2
01:49 17 °C 15 °C 1014.39 hPa NNE 4 km/h 4 km/h 90% 0 mm 0 W/m2
01:54 17 °C 15 °C 1014.36 hPa NNE 4 km/h 5 km/h 90% 0 mm 0 W/m2
01:59 17 °C 15 °C 1014.36 hPa N 6 km/h 5 km/h 90% 0 mm 0 W/m2
02:04 17 °C 15 °C 1014.36 hPa NNW 4 km/h 3 km/h 90% 0 mm 0 W/m2
02:09 17 °C 15 °C 1014.39 hPa NW 5 km/h 3 km/h 90% 0 mm 0 W/m2
02:14 17 °C 15 °C 1014.33 hPa NW 3 km/h 2 km/h 90% 0 mm 0 W/m2
02:19 17 °C 15 °C 1014.33 hPa NW 2 km/h 2 km/h 90% 0 mm 0 W/m2
02:24 17 °C 15 °C 1014.33 hPa NW 2 km/h 2 km/h 90% 0 mm 0 W/m2
02:29 17 °C 15 °C 1014.22 hPa NW 2 km/h 2 km/h 90% 0 mm 0 W/m2
02:34 17 °C 15 °C 1014.16 hPa NW 2 km/h 2 km/h 91% 0 mm 0 W/m2
02:39 17 °C 15 °C 1014.16 hPa NW 1 km/h 2 km/h 91% 0 mm 0 W/m2
02:44 17 °C 15 °C 1014.09 hPa NW 3 km/h 2 km/h 91% 0 mm 0 W/m2
02:49 17 °C 15 °C 1014.09 hPa NW 3 km/h 2 km/h 91% 0 mm 0 W/m2
02:54 17 °C 15 °C 1014.09 hPa NW 1 km/h 1 km/h 92% 0 mm 0 W/m2
02:59 17 °C 15 °C 1014.09 hPa NW 2 km/h 1 km/h 92% 0 mm 0 W/m2
03:04 17 °C 15 °C 1014.09 hPa NW 2 km/h 1 km/h 92% 0 mm 0 W/m2
03:09 17 °C 15 °C 1014.09 hPa WNW 3 km/h 2 km/h 92% 0 mm 0 W/m2
03:14 16 °C 15 °C 1014.05 hPa WNW 3 km/h 2 km/h 92% 0 mm 0 W/m2
03:19 16 °C 15 °C 1014.02 hPa NW 5 km/h 4 km/h 92% 0 mm 0 W/m2
03:24 16 °C 15 °C 1013.99 hPa NNW 5 km/h 4 km/h 92% 0 mm 0 W/m2
03:29 16 °C 15 °C 1013.99 hPa NNW 5 km/h 5 km/h 93% 0 mm 0 W/m2
03:34 16 °C 15 °C 1013.95 hPa N 6 km/h 5 km/h 93% 0 mm 0 W/m2
03:39 16 °C 15 °C 1013.92 hPa N 7 km/h 7 km/h 93% 0 mm 0 W/m2
03:44 16 °C 15 °C 1013.92 hPa N 6 km/h 6 km/h 93% 0 mm 0 W/m2
03:49 16 °C 15 °C 1013.85 hPa N 8 km/h 8 km/h 93% 0 mm 0 W/m2
03:54 16 °C 15 °C 1013.78 hPa N 8 km/h 7 km/h 93% 0 mm 0 W/m2
03:59 16 °C 15 °C 1013.75 hPa N 8 km/h 9 km/h 93% 0 mm 0 W/m2
04:04 16 °C 15 °C 1013.75 hPa NNE 8 km/h 9 km/h 93% 0 mm 0 W/m2
04:09 16 °C 15 °C 1013.72 hPa NNE 8 km/h 8 km/h 93% 0 mm 0 W/m2
04:14 16 °C 15 °C 1013.72 hPa NNE 11 km/h 10 km/h 93% 0 mm 0 W/m2
04:19 16 °C 15 °C 1013.65 hPa NNE 11 km/h 9 km/h 93% 0 mm 0 W/m2
04:24 17 °C 15 °C 1013.61 hPa NNE 12 km/h 10 km/h 93% 0 mm 0 W/m2
04:29 17 °C 15 °C 1013.61 hPa NNE 16 km/h 14 km/h 93% 0 mm 0 W/m2
04:34 17 °C 15 °C 1013.55 hPa NNE 17 km/h 14 km/h 92% 0 mm 0 W/m2
04:39 17 °C 15 °C 1013.51 hPa NNE 16 km/h 13 km/h 92% 0 mm 0 W/m2
04:44 17 °C 15 °C 1013.48 hPa NE 19 km/h 14 km/h 91% 0 mm 0 W/m2
04:49 17 °C 15 °C 1013.51 hPa NE 17 km/h 14 km/h 91% 0 mm 0 W/m2
04:54 17 °C 15 °C 1013.58 hPa NE 18 km/h 15 km/h 91% 0 mm 5 W/m2
04:59 17 °C 15 °C 1013.72 hPa NE 14 km/h 11 km/h 91% 0 mm 7 W/m2
05:04 17 °C 15 °C 1013.75 hPa ENE 13 km/h 12 km/h 91% 0 mm 7 W/m2
05:09 17 °C 15 °C 1013.72 hPa NE 16 km/h 15 km/h 90% 0 mm 5 W/m2
05:14 16 °C 15 °C 1013.72 hPa NE 18 km/h 14 km/h 89% 0 mm 7 W/m2
05:19 16 °C 15 °C 1013.68 hPa ENE 15 km/h 15 km/h 89% 0 mm 9 W/m2
05:24 16 °C 15 °C 1013.61 hPa ENE 15 km/h 14 km/h 89% 0 mm 12 W/m2
05:29 16 °C 14 °C 1013.68 hPa NE 14 km/h 11 km/h 88% 0 mm 19 W/m2
05:34 16 °C 14 °C 1013.61 hPa NE 14 km/h 11 km/h 88% 0 mm 19 W/m2
Compliments of Weather Underground - 2 mb